sensor_id;sensor_type;location;lat;lon;timestamp;P1;durP1;ratioP1;P2;durP2;ratioP2
11531;SDS011;5822;51.000;5.874;2023-12-14T00:01:32;24.33;;;22.83;;
11531;SDS011;5822;51.000;5.874;2023-12-14T00:03:58;24.93;;;23.33;;
11531;SDS011;5822;51.000;5.874;2023-12-14T00:06:24;25.03;;;23.53;;
11531;SDS011;5822;51.000;5.874;2023-12-14T00:08:49;25.80;;;24.17;;
11531;SDS011;5822;51.000;5.874;2023-12-14T00:11:15;25.25;;;23.65;;
11531;SDS011;5822;51.000;5.874;2023-12-14T00:13:41;26.93;;;25.23;;
11531;SDS011;5822;51.000;5.874;2023-12-14T00:16:07;26.77;;;25.07;;
11531;SDS011;5822;51.000;5.874;2023-12-14T00:18:34;26.77;;;25.05;;
11531;SDS011;5822;51.000;5.874;2023-12-14T00:21:00;27.48;;;25.67;;
11531;SDS011;5822;51.000;5.874;2023-12-14T00:23:26;27.30;;;25.60;;
11531;SDS011;5822;51.000;5.874;2023-12-14T00:25:52;28.67;;;26.77;;
11531;SDS011;5822;51.000;5.874;2023-12-14T00:28:17;29.10;;;27.20;;
11531;SDS011;5822;51.000;5.874;2023-12-14T00:30:43;27.90;;;26.07;;
11531;SDS011;5822;51.000;5.874;2023-12-14T00:33:08;28.43;;;26.63;;
11531;SDS011;5822;51.000;5.874;2023-12-14T00:35:34;29.43;;;27.47;;
11531;SDS011;5822;51.000;5.874;2023-12-14T00:38:00;29.80;;;27.80;;
11531;SDS011;5822;51.000;5.874;2023-12-14T00:40:26;28.07;;;26.27;;
11531;SDS011;5822;51.000;5.874;2023-12-14T00:42:51;28.40;;;26.50;;
11531;SDS011;5822;51.000;5.874;2023-12-14T00:45:17;28.60;;;26.70;;
11531;SDS011;5822;51.000;5.874;2023-12-14T00:47:42;30.40;;;28.33;;
11531;SDS011;5822;51.000;5.874;2023-12-14T00:50:08;28.85;;;26.95;;
11531;SDS011;5822;51.000;5.874;2023-12-14T00:52:34;30.40;;;28.30;;
11531;SDS011;5822;51.000;5.874;2023-12-14T00:55:00;29.90;;;27.90;;
11531;SDS011;5822;51.000;5.874;2023-12-14T00:57:25;32.63;;;30.33;;
11531;SDS011;5822;51.000;5.874;2023-12-14T00:59:51;34.58;;;31.98;;
11531;SDS011;5822;51.000;5.874;2023-12-14T01:02:16;32.35;;;30.05;;
11531;SDS011;5822;51.000;5.874;2023-12-14T01:04:42;32.93;;;30.63;;
11531;SDS011;5822;51.000;5.874;2023-12-14T01:07:08;33.33;;;30.93;;
11531;SDS011;5822;51.000;5.874;2023-12-14T01:09:33;35.40;;;32.80;;
11531;SDS011;5822;51.000;5.874;2023-12-14T01:11:59;34.30;;;31.90;;
11531;SDS011;5822;51.000;5.874;2023-12-14T01:14:25;36.03;;;33.42;;
11531;SDS011;5822;51.000;5.874;2023-12-14T01:16:51;36.50;;;33.90;;
11531;SDS011;5822;51.000;5.874;2023-12-14T01:19:16;36.57;;;33.93;;
11531;SDS011;5822;51.000;5.874;2023-12-14T01:21:42;34.57;;;32.17;;
11531;SDS011;5822;51.000;5.874;2023-12-14T01:24:08;37.37;;;34.67;;
11531;SDS011;5822;51.000;5.874;2023-12-14T01:26:34;35.40;;;32.90;;
11531;SDS011;5822;51.000;5.874;2023-12-14T01:28:59;34.83;;;32.43;;
11531;SDS011;5822;51.000;5.874;2023-12-14T01:31:25;32.80;;;30.50;;
11531;SDS011;5822;51.000;5.874;2023-12-14T01:33:51;32.42;;;30.23;;
11531;SDS011;5822;51.000;5.874;2023-12-14T01:36:20;31.80;;;29.70;;
11531;SDS011;5822;51.000;5.874;2023-12-14T01:38:47;30.13;;;28.13;;
11531;SDS011;5822;51.000;5.874;2023-12-14T01:41:13;30.05;;;28.05;;
11531;SDS011;5822;51.000;5.874;2023-12-14T01:43:38;28.90;;;27.00;;
11531;SDS011;5822;51.000;5.874;2023-12-14T01:46:04;29.20;;;27.30;;
11531;SDS011;5822;51.000;5.874;2023-12-14T01:48:30;29.10;;;27.20;;
11531;SDS011;5822;51.000;5.874;2023-12-14T01:50:55;28.40;;;26.50;;
11531;SDS011;5822;51.000;5.874;2023-12-14T01:53:21;29.17;;;27.27;;
11531;SDS011;5822;51.000;5.874;2023-12-14T01:55:47;28.63;;;26.73;;
11531;SDS011;5822;51.000;5.874;2023-12-14T01:58:12;26.53;;;24.83;;
11531;SDS011;5822;51.000;5.874;2023-12-14T02:03:19;25.83;;;24.20;;
11531;SDS011;5822;51.000;5.874;2023-12-14T02:05:44;27.33;;;25.63;;
11531;SDS011;5822;51.000;5.874;2023-12-14T02:08:10;26.17;;;24.58;;
11531;SDS011;5822;51.000;5.874;2023-12-14T02:10:36;26.08;;;24.48;;
11531;SDS011;5822;51.000;5.874;2023-12-14T02:13:02;25.52;;;23.92;;
11531;SDS011;5822;51.000;5.874;2023-12-14T02:15:28;26.80;;;25.10;;
11531;SDS011;5822;51.000;5.874;2023-12-14T02:17:53;27.83;;;26.13;;
11531;SDS011;5822;51.000;5.874;2023-12-14T02:20:19;27.90;;;26.20;;
11531;SDS011;5822;51.000;5.874;2023-12-14T02:22:48;29.23;;;27.43;;
11531;SDS011;5822;51.000;5.874;2023-12-14T02:25:15;27.90;;;26.20;;
11531;SDS011;5822;51.000;5.874;2023-12-14T02:27:41;28.17;;;26.48;;
11531;SDS011;5822;51.000;5.874;2023-12-14T02:30:07;27.88;;;26.17;;
11531;SDS011;5822;51.000;5.874;2023-12-14T02:32:33;28.53;;;26.77;;
11531;SDS011;5822;51.000;5.874;2023-12-14T02:34:58;26.43;;;24.73;;
11531;SDS011;5822;51.000;5.874;2023-12-14T02:37:24;25.33;;;23.73;;
11531;SDS011;5822;51.000;5.874;2023-12-14T02:39:49;24.67;;;23.17;;
11531;SDS011;5822;51.000;5.874;2023-12-14T02:42:16;25.85;;;24.25;;
11531;SDS011;5822;51.000;5.874;2023-12-14T02:44:41;24.77;;;23.27;;
11531;SDS011;5822;51.000;5.874;2023-12-14T02:47:07;24.97;;;23.47;;
11531;SDS011;5822;51.000;5.874;2023-12-14T02:49:33;26.10;;;24.50;;
11531;SDS011;5822;51.000;5.874;2023-12-14T02:51:58;28.03;;;26.23;;
11531;SDS011;5822;51.000;5.874;2023-12-14T02:54:24;28.50;;;26.70;;
11531;SDS011;5822;51.000;5.874;2023-12-14T02:56:50;27.77;;;26.07;;
11531;SDS011;5822;51.000;5.874;2023-12-14T02:59:15;29.00;;;27.20;;
11531;SDS011;5822;51.000;5.874;2023-12-14T03:01:41;28.55;;;26.75;;
11531;SDS011;5822;51.000;5.874;2023-12-14T03:04:07;27.33;;;25.58;;
11531;SDS011;5822;51.000;5.874;2023-12-14T03:06:33;25.73;;;24.13;;
11531;SDS011;5822;51.000;5.874;2023-12-14T03:08:58;24.53;;;23.03;;
11531;SDS011;5822;51.000;5.874;2023-12-14T03:11:25;25.48;;;23.90;;
11531;SDS011;5822;51.000;5.874;2023-12-14T03:13:53;27.58;;;25.77;;
11531;SDS011;5822;51.000;5.874;2023-12-14T03:16:19;27.27;;;25.50;;
11531;SDS011;5822;51.000;5.874;2023-12-14T03:18:44;27.20;;;25.50;;
11531;SDS011;5822;51.000;5.874;2023-12-14T03:21:10;26.70;;;25.00;;
11531;SDS011;5822;51.000;5.874;2023-12-14T03:23:36;26.27;;;24.67;;
11531;SDS011;5822;51.000;5.874;2023-12-14T03:26:01;27.40;;;25.70;;
11531;SDS011;5822;51.000;5.874;2023-12-14T03:28:27;27.55;;;25.85;;
11531;SDS011;5822;51.000;5.874;2023-12-14T03:30:53;29.30;;;27.40;;
11531;SDS011;5822;51.000;5.874;2023-12-14T03:33:19;28.25;;;26.45;;
11531;SDS011;5822;51.000;5.874;2023-12-14T03:35:44;28.85;;;27.05;;
11531;SDS011;5822;51.000;5.874;2023-12-14T03:38:12;29.40;;;27.50;;
11531;SDS011;5822;51.000;5.874;2023-12-14T03:40:38;30.75;;;28.65;;
11531;SDS011;5822;51.000;5.874;2023-12-14T03:43:04;30.00;;;28.00;;
11531;SDS011;5822;51.000;5.874;2023-12-14T03:45:30;29.23;;;27.33;;
11531;SDS011;5822;51.000;5.874;2023-12-14T03:47:55;29.13;;;27.23;;
11531;SDS011;5822;51.000;5.874;2023-12-14T03:50:21;29.63;;;27.73;;
11531;SDS011;5822;51.000;5.874;2023-12-14T03:52:47;28.45;;;26.65;;
11531;SDS011;5822;51.000;5.874;2023-12-14T03:55:13;27.33;;;25.63;;
11531;SDS011;5822;51.000;5.874;2023-12-14T03:57:40;27.95;;;26.15;;
11531;SDS011;5822;51.000;5.874;2023-12-14T04:00:07;27.48;;;25.67;;
11531;SDS011;5822;51.000;5.874;2023-12-14T04:02:35;26.60;;;24.90;;
11531;SDS011;5822;51.000;5.874;2023-12-14T04:05:01;25.50;;;23.90;;
11531;SDS011;5822;51.000;5.874;2023-12-14T04:07:26;26.05;;;24.45;;
11531;SDS011;5822;51.000;5.874;2023-12-14T04:09:52;25.95;;;24.35;;
11531;SDS011;5822;51.000;5.874;2023-12-14T04:12:18;27.42;;;25.63;;
11531;SDS011;5822;51.000;5.874;2023-12-14T04:14:43;28.07;;;26.27;;
11531;SDS011;5822;51.000;5.874;2023-12-14T04:17:09;27.90;;;26.10;;
11531;SDS011;5822;51.000;5.874;2023-12-14T04:19:37;27.30;;;25.60;;
11531;SDS011;5822;51.000;5.874;2023-12-14T04:22:06;26.83;;;25.13;;
11531;SDS011;5822;51.000;5.874;2023-12-14T04:24:32;27.63;;;25.93;;
11531;SDS011;5822;51.000;5.874;2023-12-14T04:26:58;26.87;;;25.17;;
11531;SDS011;5822;51.000;5.874;2023-12-14T04:29:23;29.17;;;27.37;;
11531;SDS011;5822;51.000;5.874;2023-12-14T04:31:49;26.73;;;25.07;;
11531;SDS011;5822;51.000;5.874;2023-12-14T04:34:14;26.43;;;24.77;;
11531;SDS011;5822;51.000;5.874;2023-12-14T04:36:41;25.67;;;24.17;;
11531;SDS011;5822;51.000;5.874;2023-12-14T04:39:07;26.73;;;25.02;;
11531;SDS011;5822;51.000;5.874;2023-12-14T04:41:33;26.87;;;25.17;;
11531;SDS011;5822;51.000;5.874;2023-12-14T04:43:58;24.90;;;23.40;;
11531;SDS011;5822;51.000;5.874;2023-12-14T04:46:24;27.43;;;25.73;;
11531;SDS011;5822;51.000;5.874;2023-12-14T04:48:50;27.17;;;25.47;;
11531;SDS011;5822;51.000;5.874;2023-12-14T04:51:17;27.55;;;25.77;;
11531;SDS011;5822;51.000;5.874;2023-12-14T04:53:43;27.27;;;25.53;;
11531;SDS011;5822;51.000;5.874;2023-12-14T04:56:12;25.40;;;23.80;;
11531;SDS011;5822;51.000;5.874;2023-12-14T04:58:38;26.92;;;25.23;;
11531;SDS011;5822;51.000;5.874;2023-12-14T05:01:04;25.90;;;24.30;;
11531;SDS011;5822;51.000;5.874;2023-12-14T05:03:30;25.88;;;24.27;;
11531;SDS011;5822;51.000;5.874;2023-12-14T05:05:56;24.67;;;23.17;;
11531;SDS011;5822;51.000;5.874;2023-12-14T05:08:22;26.27;;;24.67;;
11531;SDS011;5822;51.000;5.874;2023-12-14T05:10:47;26.77;;;25.07;;
11531;SDS011;5822;51.000;5.874;2023-12-14T05:13:13;27.50;;;25.80;;
11531;SDS011;5822;51.000;5.874;2023-12-14T05:15:38;26.27;;;24.67;;
11531;SDS011;5822;51.000;5.874;2023-12-14T05:18:04;25.43;;;23.83;;
11531;SDS011;5822;51.000;5.874;2023-12-14T05:20:30;26.73;;;25.13;;
11531;SDS011;5822;51.000;5.874;2023-12-14T05:22:55;27.10;;;25.40;;
11531;SDS011;5822;51.000;5.874;2023-12-14T05:25:21;26.13;;;24.53;;
11531;SDS011;5822;51.000;5.874;2023-12-14T05:27:47;26.00;;;24.40;;
11531;SDS011;5822;51.000;5.874;2023-12-14T05:30:12;26.75;;;25.05;;
11531;SDS011;5822;51.000;5.874;2023-12-14T05:32:38;27.13;;;25.42;;
11531;SDS011;5822;51.000;5.874;2023-12-14T05:35:04;26.75;;;25.05;;
11531;SDS011;5822;51.000;5.874;2023-12-14T05:37:32;27.15;;;25.45;;
11531;SDS011;5822;51.000;5.874;2023-12-14T05:39:57;27.57;;;25.77;;
11531;SDS011;5822;51.000;5.874;2023-12-14T05:42:23;27.50;;;25.70;;
11531;SDS011;5822;51.000;5.874;2023-12-14T05:44:49;27.00;;;25.20;;
11531;SDS011;5822;51.000;5.874;2023-12-14T05:47:14;26.60;;;24.90;;
11531;SDS011;5822;51.000;5.874;2023-12-14T05:49:41;25.87;;;24.27;;
11531;SDS011;5822;51.000;5.874;2023-12-14T05:52:10;26.83;;;25.13;;
11531;SDS011;5822;51.000;5.874;2023-12-14T05:54:36;27.60;;;25.80;;
11531;SDS011;5822;51.000;5.874;2023-12-14T05:57:03;28.23;;;26.42;;
11531;SDS011;5822;51.000;5.874;2023-12-14T05:59:29;29.25;;;27.35;;
11531;SDS011;5822;51.000;5.874;2023-12-14T06:01:58;28.57;;;26.67;;
11531;SDS011;5822;51.000;5.874;2023-12-14T06:04:25;27.60;;;25.88;;
11531;SDS011;5822;51.000;5.874;2023-12-14T06:06:52;27.90;;;26.10;;
11531;SDS011;5822;51.000;5.874;2023-12-14T06:09:18;26.55;;;24.83;;
11531;SDS011;5822;51.000;5.874;2023-12-14T06:11:47;26.67;;;24.98;;
11531;SDS011;5822;51.000;5.874;2023-12-14T06:14:13;27.33;;;25.63;;
11531;SDS011;5822;51.000;5.874;2023-12-14T06:16:39;28.17;;;26.37;;
11531;SDS011;5822;51.000;5.874;2023-12-14T06:19:04;27.10;;;25.40;;
11531;SDS011;5822;51.000;5.874;2023-12-14T06:21:30;26.33;;;24.63;;
11531;SDS011;5822;51.000;5.874;2023-12-14T06:23:56;26.30;;;24.60;;
11531;SDS011;5822;51.000;5.874;2023-12-14T06:26:25;28.10;;;26.20;;
11531;SDS011;5822;51.000;5.874;2023-12-14T06:28:51;28.23;;;26.42;;
11531;SDS011;5822;51.000;5.874;2023-12-14T06:31:17;27.42;;;25.63;;
11531;SDS011;5822;51.000;5.874;2023-12-14T06:33:46;28.80;;;26.90;;
11531;SDS011;5822;51.000;5.874;2023-12-14T06:36:17;29.23;;;27.33;;
11531;SDS011;5822;51.000;5.874;2023-12-14T06:38:43;27.98;;;26.17;;
11531;SDS011;5822;51.000;5.874;2023-12-14T06:41:17;29.23;;;27.33;;
11531;SDS011;5822;51.000;5.874;2023-12-14T06:43:44;30.95;;;28.85;;
11531;SDS011;5822;51.000;5.874;2023-12-14T06:46:09;30.95;;;28.95;;
11531;SDS011;5822;51.000;5.874;2023-12-14T06:48:35;31.52;;;29.45;;
11531;SDS011;5822;51.000;5.874;2023-12-14T06:51:00;31.30;;;29.20;;
11531;SDS011;5822;51.000;5.874;2023-12-14T06:53:26;31.30;;;29.20;;
11531;SDS011;5822;51.000;5.874;2023-12-14T06:55:52;31.33;;;29.33;;
11531;SDS011;5822;51.000;5.874;2023-12-14T06:58:17;34.03;;;31.73;;
11531;SDS011;5822;51.000;5.874;2023-12-14T07:00:43;33.30;;;31.00;;
11531;SDS011;5822;51.000;5.874;2023-12-14T07:03:09;32.55;;;30.35;;
11531;SDS011;5822;51.000;5.874;2023-12-14T07:05:34;31.33;;;29.23;;
11531;SDS011;5822;51.000;5.874;2023-12-14T07:08:01;29.95;;;27.95;;
11531;SDS011;5822;51.000;5.874;2023-12-14T07:10:26;29.63;;;27.73;;
11531;SDS011;5822;51.000;5.874;2023-12-14T07:12:52;29.43;;;27.53;;
11531;SDS011;5822;51.000;5.874;2023-12-14T07:15:18;32.03;;;29.93;;
11531;SDS011;5822;51.000;5.874;2023-12-14T07:17:43;30.93;;;29.03;;
11531;SDS011;5822;51.000;5.874;2023-12-14T07:20:09;33.47;;;31.37;;
11531;SDS011;5822;51.000;5.874;2023-12-14T07:22:36;32.83;;;30.80;;
11531;SDS011;5822;51.000;5.874;2023-12-14T07:25:02;31.92;;;29.92;;
11531;SDS011;5822;51.000;5.874;2023-12-14T07:27:28;31.65;;;29.75;;
11531;SDS011;5822;51.000;5.874;2023-12-14T07:29:54;32.00;;;30.00;;
11531;SDS011;5822;51.000;5.874;2023-12-14T07:32:20;29.23;;;27.42;;
11531;SDS011;5822;51.000;5.874;2023-12-14T07:34:48;28.90;;;27.10;;
11531;SDS011;5822;51.000;5.874;2023-12-14T07:37:14;28.77;;;26.98;;
11531;SDS011;5822;51.000;5.874;2023-12-14T07:39:39;28.03;;;26.33;;
11531;SDS011;5822;51.000;5.874;2023-12-14T07:42:05;30.93;;;28.93;;
11531;SDS011;5822;51.000;5.874;2023-12-14T07:44:31;31.77;;;29.77;;
11531;SDS011;5822;51.000;5.874;2023-12-14T07:46:59;28.05;;;26.35;;
11531;SDS011;5822;51.000;5.874;2023-12-14T07:49:25;28.05;;;26.25;;
11531;SDS011;5822;51.000;5.874;2023-12-14T07:51:51;29.53;;;27.73;;
11531;SDS011;5822;51.000;5.874;2023-12-14T07:54:17;28.20;;;26.40;;
11531;SDS011;5822;51.000;5.874;2023-12-14T07:56:43;28.13;;;26.42;;
11531;SDS011;5822;51.000;5.874;2023-12-14T07:59:09;30.23;;;28.25;;
11531;SDS011;5822;51.000;5.874;2023-12-14T08:01:35;28.90;;;27.10;;
11531;SDS011;5822;51.000;5.874;2023-12-14T08:04:01;29.20;;;27.40;;
11531;SDS011;5822;51.000;5.874;2023-12-14T08:06:27;31.73;;;29.73;;
11531;SDS011;5822;51.000;5.874;2023-12-14T08:08:53;29.80;;;28.00;;
11531;SDS011;5822;51.000;5.874;2023-12-14T08:11:19;29.58;;;27.77;;
11531;SDS011;5822;51.000;5.874;2023-12-14T08:13:45;29.73;;;27.83;;
11531;SDS011;5822;51.000;5.874;2023-12-14T08:16:12;30.45;;;28.55;;
11531;SDS011;5822;51.000;5.874;2023-12-14T08:18:38;29.15;;;27.35;;
11531;SDS011;5822;51.000;5.874;2023-12-14T08:21:04;27.95;;;26.25;;
11531;SDS011;5822;51.000;5.874;2023-12-14T08:23:33;28.33;;;26.52;;
11531;SDS011;5822;51.000;5.874;2023-12-14T08:25:58;27.73;;;26.02;;
11531;SDS011;5822;51.000;5.874;2023-12-14T08:28:24;28.40;;;26.70;;
11531;SDS011;5822;51.000;5.874;2023-12-14T08:30:50;30.40;;;28.60;;
11531;SDS011;5822;51.000;5.874;2023-12-14T08:33:16;27.08;;;25.48;;
11531;SDS011;5822;51.000;5.874;2023-12-14T08:35:42;28.00;;;26.30;;
11531;SDS011;5822;51.000;5.874;2023-12-14T08:38:08;27.15;;;25.55;;
11531;SDS011;5822;51.000;5.874;2023-12-14T08:40:35;28.43;;;26.73;;
11531;SDS011;5822;51.000;5.874;2023-12-14T08:43:02;27.63;;;25.92;;
11531;SDS011;5822;51.000;5.874;2023-12-14T08:45:28;28.23;;;26.53;;
11531;SDS011;5822;51.000;5.874;2023-12-14T08:47:54;29.77;;;27.88;;
11531;SDS011;5822;51.000;5.874;2023-12-14T08:50:19;28.23;;;26.52;;
11531;SDS011;5822;51.000;5.874;2023-12-14T08:52:45;28.60;;;26.90;;
11531;SDS011;5822;51.000;5.874;2023-12-14T08:55:12;29.47;;;27.67;;
11531;SDS011;5822;51.000;5.874;2023-12-14T08:57:38;30.55;;;28.75;;
11531;SDS011;5822;51.000;5.874;2023-12-14T09:00:04;27.00;;;25.40;;
11531;SDS011;5822;51.000;5.874;2023-12-14T09:02:31;28.80;;;27.00;;
11531;SDS011;5822;51.000;5.874;2023-12-14T09:04:57;28.43;;;26.63;;
11531;SDS011;5822;51.000;5.874;2023-12-14T09:07:23;29.33;;;27.53;;
11531;SDS011;5822;51.000;5.874;2023-12-14T09:09:48;28.20;;;26.43;;
11531;SDS011;5822;51.000;5.874;2023-12-14T09:12:14;28.40;;;26.60;;
11531;SDS011;5822;51.000;5.874;2023-12-14T09:14:40;29.67;;;27.77;;
11531;SDS011;5822;51.000;5.874;2023-12-14T09:17:05;30.23;;;28.33;;
11531;SDS011;5822;51.000;5.874;2023-12-14T09:19:31;27.60;;;25.90;;
11531;SDS011;5822;51.000;5.874;2023-12-14T09:21:57;27.70;;;26.00;;
11531;SDS011;5822;51.000;5.874;2023-12-14T09:24:23;27.20;;;25.55;;
11531;SDS011;5822;51.000;5.874;2023-12-14T09:26:49;26.40;;;24.70;;
11531;SDS011;5822;51.000;5.874;2023-12-14T09:29:15;26.92;;;25.30;;
11531;SDS011;5822;51.000;5.874;2023-12-14T09:31:41;28.67;;;26.88;;
11531;SDS011;5822;51.000;5.874;2023-12-14T09:34:08;27.25;;;25.55;;
11531;SDS011;5822;51.000;5.874;2023-12-14T09:36:34;25.90;;;24.30;;
11531;SDS011;5822;51.000;5.874;2023-12-14T09:39:00;25.80;;;24.20;;
11531;SDS011;5822;51.000;5.874;2023-12-14T09:41:25;27.20;;;25.50;;
11531;SDS011;5822;51.000;5.874;2023-12-14T09:43:51;28.27;;;26.47;;
11531;SDS011;5822;51.000;5.874;2023-12-14T09:46:17;29.85;;;27.95;;
11531;SDS011;5822;51.000;5.874;2023-12-14T09:48:45;27.77;;;26.08;;
11531;SDS011;5822;51.000;5.874;2023-12-14T09:51:12;28.30;;;26.50;;
11531;SDS011;5822;51.000;5.874;2023-12-14T09:53:38;27.17;;;25.50;;
11531;SDS011;5822;51.000;5.874;2023-12-14T09:56:04;26.40;;;24.80;;
11531;SDS011;5822;51.000;5.874;2023-12-14T09:58:33;27.85;;;26.15;;
11531;SDS011;5822;51.000;5.874;2023-12-14T10:00:59;28.75;;;26.95;;
11531;SDS011;5822;51.000;5.874;2023-12-14T10:03:26;26.95;;;25.25;;
11531;SDS011;5822;51.000;5.874;2023-12-14T10:05:54;27.80;;;26.10;;
11531;SDS011;5822;51.000;5.874;2023-12-14T10:08:21;26.87;;;25.17;;
11531;SDS011;5822;51.000;5.874;2023-12-14T10:10:48;26.70;;;25.00;;
11531;SDS011;5822;51.000;5.874;2023-12-14T10:13:22;28.05;;;26.30;;
11531;SDS011;5822;51.000;5.874;2023-12-14T10:16:08;27.40;;;25.70;;
11531;SDS011;5822;51.000;5.874;2023-12-14T10:18:33;29.20;;;27.40;;
11531;SDS011;5822;51.000;5.874;2023-12-14T10:20:59;28.03;;;26.27;;
11531;SDS011;5822;51.000;5.874;2023-12-14T10:23:26;27.20;;;25.50;;
11531;SDS011;5822;51.000;5.874;2023-12-14T10:25:53;28.10;;;26.30;;
11531;SDS011;5822;51.000;5.874;2023-12-14T10:28:18;27.20;;;25.50;;
11531;SDS011;5822;51.000;5.874;2023-12-14T10:30:44;26.70;;;25.00;;
11531;SDS011;5822;51.000;5.874;2023-12-14T10:33:10;26.73;;;25.03;;
11531;SDS011;5822;51.000;5.874;2023-12-14T10:35:35;27.23;;;25.43;;
11531;SDS011;5822;51.000;5.874;2023-12-14T10:38:02;27.15;;;25.45;;
11531;SDS011;5822;51.000;5.874;2023-12-14T10:40:35;28.17;;;26.40;;
11531;SDS011;5822;51.000;5.874;2023-12-14T10:43:08;25.98;;;24.38;;
11531;SDS011;5822;51.000;5.874;2023-12-14T10:45:35;27.27;;;25.57;;
11531;SDS011;5822;51.000;5.874;2023-12-14T10:48:04;26.60;;;24.90;;
11531;SDS011;5822;51.000;5.874;2023-12-14T10:50:30;27.77;;;26.08;;
11531;SDS011;5822;51.000;5.874;2023-12-14T10:52:59;26.97;;;25.27;;
11531;SDS011;5822;51.000;5.874;2023-12-14T10:55:42;27.52;;;25.83;;
11531;SDS011;5822;51.000;5.874;2023-12-14T10:58:09;27.75;;;26.00;;
11531;SDS011;5822;51.000;5.874;2023-12-14T11:00:36;26.88;;;25.17;;
11531;SDS011;5822;51.000;5.874;2023-12-14T11:03:06;27.73;;;25.92;;
11531;SDS011;5822;51.000;5.874;2023-12-14T11:05:32;26.27;;;24.58;;
11531;SDS011;5822;51.000;5.874;2023-12-14T11:08:03;25.83;;;24.23;;
11531;SDS011;5822;51.000;5.874;2023-12-14T11:10:38;27.90;;;26.10;;
11531;SDS011;5822;51.000;5.874;2023-12-14T11:13:06;26.33;;;24.63;;
11531;SDS011;5822;51.000;5.874;2023-12-14T11:15:37;28.40;;;26.50;;
11531;SDS011;5822;51.000;5.874;2023-12-14T11:23:13;26.17;;;24.58;;
11531;SDS011;5822;51.000;5.874;2023-12-14T11:25:51;26.67;;;24.98;;
11531;SDS011;5822;51.000;5.874;2023-12-14T11:28:19;25.77;;;24.15;;
11531;SDS011;5822;51.000;5.874;2023-12-14T11:30:45;24.75;;;23.23;;
11531;SDS011;5822;51.000;5.874;2023-12-14T11:33:12;24.67;;;23.08;;
11531;SDS011;5822;51.000;5.874;2023-12-14T11:35:38;26.10;;;24.40;;
11531;SDS011;5822;51.000;5.874;2023-12-14T11:38:04;25.40;;;23.80;;
11531;SDS011;5822;51.000;5.874;2023-12-14T11:40:43;25.10;;;23.50;;
11531;SDS011;5822;51.000;5.874;2023-12-14T11:43:09;24.70;;;23.20;;
11531;SDS011;5822;51.000;5.874;2023-12-14T11:45:35;24.63;;;23.03;;
11531;SDS011;5822;51.000;5.874;2023-12-14T11:48:08;24.70;;;23.20;;
11531;SDS011;5822;51.000;5.874;2023-12-14T11:50:37;23.67;;;22.17;;
11531;SDS011;5822;51.000;5.874;2023-12-14T11:53:04;24.05;;;22.55;;
11531;SDS011;5822;51.000;5.874;2023-12-14T11:55:30;24.25;;;22.70;;
11531;SDS011;5822;51.000;5.874;2023-12-14T11:57:57;22.60;;;21.20;;
11531;SDS011;5822;51.000;5.874;2023-12-14T12:00:27;23.42;;;22.02;;
11531;SDS011;5822;51.000;5.874;2023-12-14T12:05:39;24.33;;;22.83;;
11531;SDS011;5822;51.000;5.874;2023-12-14T12:08:06;23.67;;;22.17;;
11531;SDS011;5822;51.000;5.874;2023-12-14T12:10:33;23.77;;;22.27;;
11531;SDS011;5822;51.000;5.874;2023-12-14T12:13:03;24.77;;;23.27;;
11531;SDS011;5822;51.000;5.874;2023-12-14T12:15:35;23.38;;;21.98;;
11531;SDS011;5822;51.000;5.874;2023-12-14T12:18:09;23.35;;;21.95;;
11531;SDS011;5822;51.000;5.874;2023-12-14T12:20:35;24.90;;;23.40;;
11531;SDS011;5822;51.000;5.874;2023-12-14T12:23:02;23.95;;;22.52;;
11531;SDS011;5822;51.000;5.874;2023-12-14T12:25:28;24.17;;;22.75;;
11531;SDS011;5822;51.000;5.874;2023-12-14T12:27:58;24.65;;;23.15;;
11531;SDS011;5822;51.000;5.874;2023-12-14T12:30:24;23.90;;;22.50;;
11531;SDS011;5822;51.000;5.874;2023-12-14T12:32:50;23.30;;;21.90;;
11531;SDS011;5822;51.000;5.874;2023-12-14T12:35:19;23.45;;;22.05;;
11531;SDS011;5822;51.000;5.874;2023-12-14T12:37:45;23.15;;;21.75;;
11531;SDS011;5822;51.000;5.874;2023-12-14T12:40:11;23.77;;;22.30;;
11531;SDS011;5822;51.000;5.874;2023-12-14T12:42:38;23.10;;;21.70;;
11531;SDS011;5822;51.000;5.874;2023-12-14T12:45:04;23.30;;;21.90;;
11531;SDS011;5822;51.000;5.874;2023-12-14T12:47:30;23.13;;;21.73;;
11531;SDS011;5822;51.000;5.874;2023-12-14T12:49:56;23.23;;;21.83;;
11531;SDS011;5822;51.000;5.874;2023-12-14T12:52:22;22.37;;;21.07;;
11531;SDS011;5822;51.000;5.874;2023-12-14T12:54:47;22.90;;;21.50;;
11531;SDS011;5822;51.000;5.874;2023-12-14T12:57:13;23.80;;;22.40;;
11531;SDS011;5822;51.000;5.874;2023-12-14T12:59:38;23.30;;;21.97;;
11531;SDS011;5822;51.000;5.874;2023-12-14T13:02:04;21.40;;;20.20;;
11531;SDS011;5822;51.000;5.874;2023-12-14T13:04:30;21.83;;;20.52;;
11531;SDS011;5822;51.000;5.874;2023-12-14T13:06:56;22.10;;;20.80;;
11531;SDS011;5822;51.000;5.874;2023-12-14T13:09:22;22.55;;;21.25;;
11531;SDS011;5822;51.000;5.874;2023-12-14T13:11:48;23.08;;;21.70;;
11531;SDS011;5822;51.000;5.874;2023-12-14T13:14:15;23.02;;;21.67;;
11531;SDS011;5822;51.000;5.874;2023-12-14T13:16:41;22.53;;;21.23;;
11531;SDS011;5822;51.000;5.874;2023-12-14T13:19:07;22.13;;;20.83;;
11531;SDS011;5822;51.000;5.874;2023-12-14T13:21:33;22.60;;;21.30;;
11531;SDS011;5822;51.000;5.874;2023-12-14T13:23:59;22.80;;;21.50;;
11531;SDS011;5822;51.000;5.874;2023-12-14T13:26:25;22.33;;;21.02;;
11531;SDS011;5822;51.000;5.874;2023-12-14T13:28:51;22.00;;;20.70;;
11531;SDS011;5822;51.000;5.874;2023-12-14T13:31:17;22.03;;;20.83;;
11531;SDS011;5822;51.000;5.874;2023-12-14T13:33:43;21.63;;;20.42;;
11531;SDS011;5822;51.000;5.874;2023-12-14T13:36:10;21.83;;;20.53;;
11531;SDS011;5822;51.000;5.874;2023-12-14T13:38:36;21.80;;;20.60;;
11531;SDS011;5822;51.000;5.874;2023-12-14T13:41:02;21.30;;;20.10;;
11531;SDS011;5822;51.000;5.874;2023-12-14T13:43:28;22.67;;;21.38;;
11531;SDS011;5822;51.000;5.874;2023-12-14T13:45:54;22.83;;;21.42;;
11531;SDS011;5822;51.000;5.874;2023-12-14T13:48:23;22.83;;;21.52;;
11531;SDS011;5822;51.000;5.874;2023-12-14T13:50:49;22.00;;;20.80;;
11531;SDS011;5822;51.000;5.874;2023-12-14T13:53:15;22.00;;;20.80;;
11531;SDS011;5822;51.000;5.874;2023-12-14T13:55:41;22.50;;;21.20;;
11531;SDS011;5822;51.000;5.874;2023-12-14T13:58:06;22.47;;;21.17;;
11531;SDS011;5822;51.000;5.874;2023-12-14T14:00:32;21.23;;;19.97;;
11531;SDS011;5822;51.000;5.874;2023-12-14T14:02:59;22.08;;;20.80;;
11531;SDS011;5822;51.000;5.874;2023-12-14T14:05:25;22.50;;;21.20;;
11531;SDS011;5822;51.000;5.874;2023-12-14T14:07:51;22.63;;;21.33;;
11531;SDS011;5822;51.000;5.874;2023-12-14T14:10:17;22.65;;;21.35;;
11531;SDS011;5822;51.000;5.874;2023-12-14T14:12:44;22.42;;;21.13;;
11531;SDS011;5822;51.000;5.874;2023-12-14T14:15:11;22.00;;;20.80;;
11531;SDS011;5822;51.000;5.874;2023-12-14T14:17:37;22.33;;;21.03;;
11531;SDS011;5822;51.000;5.874;2023-12-14T14:20:03;22.67;;;21.33;;
11531;SDS011;5822;51.000;5.874;2023-12-14T14:22:30;21.92;;;20.73;;
11531;SDS011;5822;51.000;5.874;2023-12-14T14:24:55;21.70;;;20.50;;
11531;SDS011;5822;51.000;5.874;2023-12-14T14:27:21;22.75;;;21.45;;
11531;SDS011;5822;51.000;5.874;2023-12-14T14:29:47;22.60;;;21.30;;
11531;SDS011;5822;51.000;5.874;2023-12-14T14:32:14;22.83;;;21.42;;
11531;SDS011;5822;51.000;5.874;2023-12-14T14:34:40;21.45;;;20.25;;
11531;SDS011;5822;51.000;5.874;2023-12-14T14:37:07;22.55;;;21.25;;
11531;SDS011;5822;51.000;5.874;2023-12-14T14:39:33;22.20;;;20.90;;